Time;durP1;ratioP1;P1;durP2;ratioP2;P2;SDS_P1;SDS_P2;PMS_P1;PMS_P2;Temp;Humidity;BMP_temperature;BMP_pressure;BME280_temperature;BME280_humidity;BME280_pressure;Samples;Min_cycle;Max_cycle;Signal;HPM_P1;HPM_P2
2023/05/25 01:22:02;;;;;;;;;;;;;;;5.77;100.00;100152.91;6291822;22;19972;-84
2023/05/25 01:24:42;;;;;;;;;;;;;;;5.74;100.00;100145.91;6279236;22;19922;-85
2023/05/25 01:27:31;;;;;;;;;;;;;;;5.74;100.00;100145.91;6306583;22;19997;-83
2023/05/25 01:29:58;;;;;;;;;;;;;;;5.78;100.00;100144.13;6306605;22;19915;-85
2023/05/25 01:32:23;;;;;;;;;;;;;;;5.90;100.00;100137.78;6279584;22;20272;-84
2023/05/25 01:34:49;;;;;;;;;;;;;;;5.83;100.00;100137.00;6305045;22;19915;-85
2023/05/25 01:37:16;;;;;;;;;;;;;;;5.85;100.00;100137.84;6306404;22;20338;-85
2023/05/25 01:39:41;;;;;;;;;;;;;;;5.76;100.00;100145.91;6279490;22;20037;-84
2023/05/25 01:42:07;;;;;;;;;;;;;;;5.81;100.00;100152.81;6306531;22;20330;-87
2023/05/25 01:44:32;;;;;;;;;;;;;;;5.77;100.00;100148.50;6306500;22;19911;-85
2023/05/25 01:47:10;;;;;;;;;;;;;;;5.74;100.00;100148.53;6279140;22;19922;-90
2023/05/25 01:49:53;;;;;;;;;;;;;;;5.78;100.00;100155.50;6305314;22;20330;-83
2023/05/25 01:52:22;;;;;;;;;;;;;;;5.74;100.00;100153.81;6306370;22;19914;-85
2023/05/25 01:54:51;;;;;;;;;;;;;;;5.78;100.00;100165.16;6279579;22;20367;-83
2023/05/25 01:57:18;;;;;;;;;;;;;;;5.77;100.00;100159.00;6306379;22;19915;-84
2023/05/25 01:59:47;;;;;;;;;;;;;;;5.74;100.00;100171.34;6306380;22;20196;-84
2023/05/25 02:02:14;;;;;;;;;;;;;;;5.76;100.00;100170.44;6278864;22;20001;-83
2023/05/25 02:04:40;;;;;;;;;;;;;;;5.74;100.00;100164.31;6277645;22;19915;-83
2023/05/25 02:07:06;;;;;;;;;;;;;;;5.83;100.00;100165.94;6306310;22;20284;-83
2023/05/25 02:09:31;;;;;;;;;;;;;;;5.80;100.00;100168.63;6279326;22;19911;-83
2023/05/25 02:11:56;;;;;;;;;;;;;;;5.79;100.00;100166.88;6306294;22;20334;-83
2023/05/25 02:14:21;;;;;;;;;;;;;;;5.81;100.00;100168.59;6306385;22;19937;-83
2023/05/25 02:16:47;;;;;;;;;;;;;;;5.80;100.00;100166.84;6278957;22;19960;-83
2023/05/25 02:19:13;;;;;;;;;;;;;;;5.83;100.00;100171.22;6306557;22;20228;-83
2023/05/25 02:21:39;;;;;;;;;;;;;;;5.78;100.00;100162.53;6304630;22;19921;-86
2023/05/25 02:24:05;;;;;;;;;;;;;;;5.80;100.00;100166.84;6306155;22;19989;-84
2023/05/25 02:26:30;;;;;;;;;;;;;;;5.76;100.00;100162.56;6306241;22;20397;-85
2023/05/25 02:28:58;;;;;;;;;;;;;;;5.78;100.00;100170.44;6306303;22;19911;-85
2023/05/25 02:31:23;;;;;;;;;;;;;;;5.80;100.00;100166.84;6243363;23;20363;-84
2023/05/25 02:33:48;;;;;;;;;;;;;;;5.83;100.00;100165.94;6243695;23;20000;-85
2023/05/25 02:36:14;;;;;;;;;;;;;;;5.73;100.00;100161.75;6242119;23;19922;-84
2023/05/25 07:58:40;;;;;;;;;;;;;;;5.79;100.00;100303.63;6291226;22;20065;-87
2023/05/25 08:01:05;;;;;;;;;;;;;;;5.78;100.00;100304.53;6306212;22;19958;-86
2023/05/25 08:03:30;;;;;;;;;;;;;;;5.86;100.00;100309.69;6280085;22;19911;-84
2023/05/25 08:05:56;;;;;;;;;;;;;;;5.81;100.00;100309.75;6306669;22;19914;-82
2023/05/25 08:08:21;;;;;;;;;;;;;;;5.73;100.00;100299.34;6307031;22;20235;-83
2023/05/25 08:10:46;;;;;;;;;;;;;;;5.82;100.00;100308.84;6305829;22;19911;-82
2023/05/25 08:13:12;;;;;;;;;;;;;;;5.79;100.00;100307.16;6277342;22;20254;-84
2023/05/25 08:15:37;;;;;;;;;;;;;;;5.89;100.00;100313.13;6305265;22;19911;-84
2023/05/25 08:18:03;;;;;;;;;;;;;;;5.83;100.00;100305.34;6306123;22;20280;-84
2023/05/25 08:20:28;;;;;;;;;;;;;;;5.81;100.00;100301.88;6279380;22;19918;-84
2023/05/25 08:22:54;;;;;;;;;;;;;;;5.73;100.00;100299.34;6305681;22;19911;-84
2023/05/25 08:25:19;;;;;;;;;;;;;;;5.87;100.00;100309.66;6306069;22;19914;-83
2023/05/25 08:27:45;;;;;;;;;;;;;;;5.74;100.00;100302.84;6277609;22;20349;-84
2023/05/25 08:30:10;;;;;;;;;;;;;;;5.76;100.00;100309.81;6307100;22;20323;-85
2023/05/25 08:32:35;;;;;;;;;;;;;;;5.73;100.00;100306.38;6307110;22;20002;-87
2023/05/25 08:35:03;;;;;;;;;;;;;;;5.85;100.00;100314.06;6279514;22;19911;-82
2023/05/25 08:37:29;;;;;;;;;;;;;;;5.85;100.00;100307.94;6306465;22;20393;-86
2023/05/25 08:39:54;;;;;;;;;;;;;;;5.75;100.00;100312.47;6307099;22;19914;-86
2023/05/25 08:42:19;;;;;;;;;;;;;;;5.95;100.00;100307.78;6278244;22;19910;-84
2023/05/25 08:44:45;;;;;;;;;;;;;;;6.10;100.00;100301.44;6306738;22;20348;-84
2023/05/25 08:47:11;;;;;;;;;;;;;;;6.08;100.00;100299.69;6306777;22;19911;-85
2023/05/25 08:49:37;;;;;;;;;;;;;;;6.03;100.00;100296.28;6278458;22;19907;-84
2023/05/25 08:52:03;;;;;;;;;;;;;;;6.02;100.00;100299.84;6306586;22;19910;-85
2023/05/25 08:54:29;;;;;;;;;;;;;;;6.20;100.00;100302.16;6306986;22;19938;-84
2023/05/25 08:57:00;;;;;;;;;;;;;;;6.09;100.00;100297.03;6277107;22;19911;-83
2023/05/25 08:59:25;;;;;;;;;;;;;;;6.18;100.00;100296.03;6306185;22;19990;-85
2023/05/25 09:01:52;;;;;;;;;;;;;;;6.05;100.00;100294.50;6306789;22;19945;-85
2023/05/25 09:04:19;;;;;;;;;;;;;;;6.20;100.00;100294.25;6306752;22;19915;-84
2023/05/25 09:06:46;;;;;;;;;;;;;;;6.02;100.00;100295.44;6279488;22;19946;-85
2023/05/25 09:09:12;;;;;;;;;;;;;;;6.02;100.00;100294.56;6279334;22;19960;-84
2023/05/25 09:11:38;;;;;;;;;;;;;;;6.08;100.00;100287.44;6306574;22;19911;-85
2023/05/25 09:14:05;;;;;;;;;;;;;;;5.96;100.00;100299.00;6304982;22;20022;-85
2023/05/25 09:16:31;;;;;;;;;;;;;;;5.93;100.00;100301.66;6305190;22;19938;-83
2023/05/25 09:18:57;;;;;;;;;;;;;;;5.79;100.00;100298.38;6305765;22;19911;-84
2023/05/25 09:21:24;;;;;;;;;;;;;;;5.83;100.00;100300.06;6306846;22;19937;-86
2023/05/25 09:23:49;;;;;;;;;;;;;;;5.81;100.00;100304.50;6306698;22;19962;-85
2023/05/25 09:26:18;;;;;;;;;;;;;;;5.99;100.00;100300.75;6305592;22;19915;-85
2023/05/25 09:28:44;;;;;;;;;;;;;;;6.08;100.00;100311.13;6304665;22;19942;-85
2023/05/25 09:31:09;;;;;;;;;;;;;;;6.00;100.00;100310.38;6306574;22;20054;-85
2023/05/25 09:33:37;;;;;;;;;;;;;;;5.91;100.00;100306.06;6306226;22;19958;-83
2023/05/25 09:36:02;;;;;;;;;;;;;;;5.87;100.00;100311.41;6306055;22;19910;-85
2023/05/25 09:38:29;;;;;;;;;;;;;;;5.86;100.00;100326.31;6305668;22;20061;-86
2023/05/25 09:40:54;;;;;;;;;;;;;;;5.89;100.00;100314.88;6306076;22;19911;-83
2023/05/25 09:43:20;;;;;;;;;;;;;;;5.78;100.00;100308.03;6277130;22;19918;-83
2023/05/25 09:45:45;;;;;;;;;;;;;;;5.92;100.00;100307.81;6306523;22;19946;-82
2023/05/25 09:48:10;;;;;;;;;;;;;;;5.88;100.00;100311.38;6306573;22;19964;-85
2023/05/25 09:50:36;;;;;;;;;;;;;;;5.84;100.00;100307.09;6279328;22;20336;-84
2023/05/25 09:53:01;;;;;;;;;;;;;;;5.92;100.00;100305.19;6306546;22;19911;-84
2023/05/25 09:55:27;;;;;;;;;;;;;;;6.00;100.00;100305.97;6306256;22;19915;-83
2023/05/25 09:57:55;;;;;;;;;;;;;;;5.77;100.00;100295.75;6277438;22;20435;-83
2023/05/25 10:00:22;;;;;;;;;;;;;;;5.86;100.00;100300.03;6305559;22;19918;-83
2023/05/25 10:02:47;;;;;;;;;;;;;;;5.93;100.00;100301.66;6305926;22;19914;-83
2023/05/25 10:05:12;;;;;;;;;;;;;;;5.83;100.00;100302.69;6305961;22;19940;-83
2023/05/25 10:07:39;;;;;;;;;;;;;;;6.00;100.00;100305.13;6306332;22;20340;-83
2023/05/25 10:10:06;;;;;;;;;;;;;;;5.95;100.00;100309.53;6305016;22;19948;-88
2023/05/25 10:12:32;;;;;;;;;;;;;;;5.88;100.00;100306.13;6301727;22;19986;-82
2023/05/25 10:15:00;;;;;;;;;;;;;;;5.86;100.00;100305.28;6305645;22;19946;-84
2023/05/25 10:17:27;;;;;;;;;;;;;;;5.73;100.00;100303.75;6306270;22;19922;-85
2023/05/25 10:19:59;;;;;;;;;;;;;;;5.80;100.00;100306.22;6306335;22;19917;-83
2023/05/25 10:22:35;;;;;;;;;;;;;;;5.82;100.00;100299.22;6306642;22;19911;-85
2023/05/25 10:25:09;;;;;;;;;;;;;;;5.81;100.00;100304.50;6306183;22;19917;-88
2023/05/25 10:27:42;;;;;;;;;;;;;;;5.83;100.00;100303.56;6278409;22;19925;-86
2023/05/25 10:30:08;;;;;;;;;;;;;;;5.75;100.00;100312.47;6305759;22;19956;-86
2023/05/25 10:32:35;;;;;;;;;;;;;;;5.87;100.00;100308.78;6306256;22;20333;-84
2023/05/25 10:35:03;;;;;;;;;;;;;;;5.83;100.00;100306.19;6279146;22;19930;-85
2023/05/25 10:37:32;;;;;;;;;;;;;;;5.82;100.00;100306.22;6305366;22;19994;-89
2023/05/25 10:39:58;;;;;;;;;;;;;;;5.94;100.00;100311.28;6305252;22;19915;-87
2023/05/25 10:42:24;;;;;;;;;;;;;;;5.84;100.00;100307.09;6304779;22;19914;-86
2023/05/25 10:44:50;;;;;;;;;;;;;;;5.80;100.00;100303.59;6278976;22;19915;-87
2023/05/25 10:47:23;;;;;;;;;;;;;;;5.76;100.00;100301.03;6306078;22;19922;-87
2023/05/25 10:49:56;;;;;;;;;;;;;;;5.75;100.00;100302.81;6278451;22;20281;-88
2023/05/25 10:52:28;;;;;;;;;;;;;;;5.75;100.00;100301.94;6279177;22;19919;-88
2023/05/25 10:54:57;;;;;;;;;;;;;;;5.81;100.00;100296.59;6280745;22;19914;-87
2023/05/25 10:57:23;;;;;;;;;;;;;;;5.73;100.00;100298.50;6305521;22;19918;-88
2023/05/25 11:00:15;;;;;;;;;;;;;;;5.74;100.00;100302.84;6308385;22;19965;-88
2023/05/25 11:02:49;;;;;;;;;;;;;;;5.68;100.00;100298.56;6280979;22;19914;-86
2023/05/25 11:05:27;;;;;;;;;;;;;;;5.72;100.00;100304.63;6307636;22;20327;-86
2023/05/25 11:08:20;;;;;;;;;;;;;;;5.86;100.00;100307.91;6279892;22;19925;-85
2023/05/25 11:10:48;;;;;;;;;;;;;;;5.84;100.00;100301.81;6283905;22;20021;-87
2023/05/25 11:13:22;;;;;;;;;;;;;;;5.79;100.00;100298.38;6305418;22;19915;-86
2023/05/25 11:16:06;;;;;;;;;;;;;;;6.00;100.00;100302.50;6306913;22;20074;-83
2023/05/25 11:18:40;;;;;;;;;;;;;;;5.82;100.00;100298.31;6280537;22;19998;-84
2023/05/25 11:21:24;;;;;;;;;;;;;;;5.83;100.00;100300.06;6308338;22;19940;-84
2023/05/25 11:24:01;;;;;;;;;;;;;;;5.92;100.00;100294.69;6280590;22;19951;-86
2023/05/25 11:26:30;;;;;;;;;;;;;;;5.87;100.00;100288.63;6306359;22;20281;-86
2023/05/25 11:28:57;;;;;;;;;;;;;;;5.89;100.00;100289.47;6306375;22;20056;-87
2023/05/25 11:31:31;;;;;;;;;;;;;;;6.07;100.00;100290.94;6279537;22;20223;-87
2023/05/25 11:33:57;;;;;;;;;;;;;;;5.97;100.00;100292.88;6306716;22;19990;-88
2023/05/25 11:36:23;;;;;;;;;;;;;;;5.83;100.00;100285.16;6280410;22;19938;-86
2023/05/25 11:38:51;;;;;;;;;;;;;;;5.92;100.00;100278.00;6307210;22;19911;-87
2023/05/25 11:41:20;;;;;;;;;;;;;;;5.84;100.00;100280.78;6307646;22;19922;-85
2023/05/25 11:43:46;;;;;;;;;;;;;;;5.87;100.00;100282.47;6277831;22;19919;-85
2023/05/25 11:46:12;;;;;;;;;;;;;;;6.00;100.00;100281.44;6306966;22;20254;-87
2023/05/25 11:48:53;;;;;;;;;;;;;;;5.98;100.00;100277.94;6306729;22;19911;-87
2023/05/25 11:51:22;;;;;;;;;;;;;;;5.87;100.00;100270.22;6307596;22;19914;-86
2023/05/25 11:53:48;;;;;;;;;;;;;;;5.93;100.00;100272.72;6307204;22;19974;-88
2023/05/25 11:56:14;;;;;;;;;;;;;;;5.94;100.00;100279.72;6306617;22;19910;-85
2023/05/25 11:58:40;;;;;;;;;;;;;;;5.83;100.00;100273.78;6306248;22;20220;-87
2023/05/25 12:01:21;;;;;;;;;;;;;;;5.81;100.00;100271.16;6305919;22;19919;-88
2023/05/25 12:03:48;;;;;;;;;;;;;;;5.83;100.00;100269.38;6307371;22;20322;-87
2023/05/25 12:06:24;;;;;;;;;;;;;;;5.87;100.00;100278.09;6307239;22;19915;-86
2023/05/25 12:08:49;;;;;;;;;;;;;;;5.88;100.00;100269.31;6307685;22;19966;-88
2023/05/25 12:11:22;;;;;;;;;;;;;;;5.82;100.00;100267.66;6280305;22;19922;-87
2023/05/25 12:13:47;;;;;;;;;;;;;;;6.08;100.00;100265.50;6278833;22;19911;-85
2023/05/25 12:16:13;;;;;;;;;;;;;;;6.04;100.00;100267.31;6307774;22;19992;-87
2023/05/25 12:18:38;;;;;;;;;;;;;;;10.16;100.00;100251.78;6278195;22;19911;-79
2023/05/25 12:21:06;;;;;;;;;;;;;;;10.89;100.00;100242.19;6278695;22;19977;-84
2023/05/25 12:23:32;;;;;;;;;;;;;;;7.37;100.00;100252.47;6278522;22;19911;-84
2023/05/25 12:26:13;;;;;;;;;;;;;;;6.63;100.00;100251.34;6306100;22;20013;-87
2023/05/25 12:28:56;;;;;;;;;;;;;;;6.51;100.00;100256.84;6305140;22;19985;-87
2023/05/25 12:31:25;;;;;;;;;;;;;;;6.45;100.00;100252.56;6306532;22;19915;-88
2023/05/25 12:34:04;;;;;;;;;;;;;;;6.18;100.00;100252.16;6307254;22;19911;-86
2023/05/25 12:36:44;;;;;;;;;;;;;;;6.19;100.00;100260.94;6307007;22;19911;-88
2023/05/25 12:39:11;;;;;;;;;;;;;;;6.29;100.00;100264.28;6307008;22;20326;-92
2023/05/25 12:41:42;;;;;;;;;;;;;;;6.25;100.00;100252.06;6306868;22;19915;-88
2023/05/25 12:44:17;;;;;;;;;;;;;;;6.30;100.00;100256.38;6305021;22;19915;-87
2023/05/25 12:46:42;;;;;;;;;;;;;;;6.15;100.00;100257.47;6306446;22;20341;-84
2023/05/25 12:49:23;;;;;;;;;;;;;;;6.19;100.00;100260.94;6306568;22;19915;-88
2023/05/25 12:51:48;;;;;;;;;;;;;;;6.25;100.00;100252.06;6306530;22;19992;-84
2023/05/25 12:54:31;;;;;;;;;;;;;;;6.27;100.00;100248.53;6305463;22;19915;-87
2023/05/25 12:56:57;;;;;;;;;;;;;;;6.06;100.00;100259.41;6277707;22;19915;-86
2023/05/25 12:59:22;;;;;;;;;;;;;;;6.29;100.00;100266.91;6306286;22;19921;-83
2023/05/25 13:01:47;;;;;;;;;;;;;;;6.30;100.00;100251.09;6305935;22;19915;-87
2023/05/25 13:04:12;;;;;;;;;;;;;;;6.19;100.00;100260.94;6279444;22;19907;-84
2023/05/25 13:06:38;;;;;;;;;;;;;;;6.29;100.00;100252.00;6305612;22;19952;-84
2023/05/25 13:09:03;;;;;;;;;;;;;;;6.28;100.00;100252.88;6306792;22;19910;-87
2023/05/25 13:11:29;;;;;;;;;;;;;;;6.06;100.00;100248.88;6279531;22;19911;-85
2023/05/25 13:13:54;;;;;;;;;;;;;;;6.08;100.00;100249.72;6304402;22;19911;-86
2023/05/25 13:16:19;;;;;;;;;;;;;;;6.22;100.00;100249.50;6306342;22;19911;-85
2023/05/25 13:18:48;;;;;;;;;;;;;;;6.02;100.00;100244.59;6278725;22;19929;-84
2023/05/25 13:21:13;;;;;;;;;;;;;;;6.20;100.00;100251.28;6305089;22;20283;-85
2023/05/25 13:23:47;;;;;;;;;;;;;;;6.26;100.00;100252.03;6305843;22;19921;-88
2023/05/25 13:26:12;;;;;;;;;;;;;;;6.16;100.00;100250.47;6306553;22;19911;-85
2023/05/25 13:28:37;;;;;;;;;;;;;;;6.29;100.00;100254.63;6304594;22;19993;-85
2023/05/25 13:31:02;;;;;;;;;;;;;;;6.14;100.00;100246.97;6278272;22;19910;-84
2023/05/25 13:33:28;;;;;;;;;;;;;;;6.17;100.00;100249.56;6279244;22;19915;-84
2023/05/25 13:36:06;;;;;;;;;;;;;;;6.10;100.00;100240.91;6306362;22;19918;-86
2023/05/25 13:38:32;;;;;;;;;;;;;;;6.00;100.00;100244.59;6306321;22;20234;-85
2023/05/25 13:40:58;;;;;;;;;;;;;;;5.94;100.00;100244.69;6278132;22;19915;-85
2023/05/25 13:43:26;;;;;;;;;;;;;;;5.98;100.00;100233.22;6304674;22;19911;-86
2023/05/25 13:45:57;;;;;;;;;;;;;;;5.99;100.00;100240.22;6278883;22;20126;-82
2023/05/25 13:48:23;;;;;;;;;;;;;;;6.10;100.00;100233.03;6306311;22;19918;-83
2023/05/25 13:50:48;;;;;;;;;;;;;;;6.01;100.00;100235.81;6305596;22;19979;-83
2023/05/25 13:53:13;;;;;;;;;;;;;;;6.02;100.00;100232.28;6304907;22;19918;-83
2023/05/25 13:55:38;;;;;;;;;;;;;;;6.00;100.00;100232.31;6306049;22;19946;-84
2023/05/25 13:58:04;;;;;;;;;;;;;;;5.90;100.00;100222.78;6303536;22;19915;-85
2023/05/25 14:00:29;;;;;;;;;;;;;;;6.03;100.00;100231.41;6305411;22;19922;-83
2023/05/25 14:02:55;;;;;;;;;;;;;;;5.86;100.00;100231.66;6305840;22;19950;-84
2023/05/25 14:05:20;;;;;;;;;;;;;;;6.02;100.00;100223.53;6306350;22;19926;-83
2023/05/25 14:07:46;;;;;;;;;;;;;;;5.94;100.00;100234.16;6305966;22;19911;-83
2023/05/25 14:10:11;;;;;;;;;;;;;;;5.96;100.00;100222.72;6305664;22;19922;-83
2023/05/25 14:12:36;;;;;;;;;;;;;;;5.88;100.00;100214.06;6303621;22;19911;-82
2023/05/25 14:15:02;;;;;;;;;;;;;;;5.85;100.00;100213.25;6306689;22;20248;-84
2023/05/25 14:17:27;;;;;;;;;;;;;;;5.89;100.00;100226.34;6305657;22;19933;-84
2023/05/25 14:19:52;;;;;;;;;;;;;;;5.86;100.00;100226.38;6305815;22;19915;-84
2023/05/25 14:22:18;;;;;;;;;;;;;;;5.93;100.00;100228.00;6305955;22;19982;-82
2023/05/25 14:24:46;;;;;;;;;;;;;;;5.94;100.00;100223.63;6306297;22;19921;-83
2023/05/25 14:27:14;;;;;;;;;;;;;;;5.91;100.00;100219.28;6306357;22;19914;-85
2023/05/25 14:29:40;;;;;;;;;;;;;;;5.96;100.00;100221.84;6306310;22;20339;-85
2023/05/25 14:32:15;;;;;;;;;;;;;;;5.97;100.00;100219.22;6307665;22;19946;-84
2023/05/25 14:34:41;;;;;;;;;;;;;;;6.20;100.00;100220.56;6308030;22;20268;-84
2023/05/25 14:37:06;;;;;;;;;;;;;;;5.93;100.00;100216.63;6281116;22;19917;-85
2023/05/25 14:39:31;;;;;;;;;;;;;;;5.94;100.00;100218.38;6308305;22;19911;-83
2023/05/25 14:41:56;;;;;;;;;;;;;;;5.88;100.00;100203.53;6279138;22;19990;-84
2023/05/25 14:44:22;;;;;;;;;;;;;;;6.06;100.00;100202.38;6308365;22;20361;-85
2023/05/25 14:46:47;;;;;;;;;;;;;;;5.95;100.00;100215.72;6307960;22;19914;-89
2023/05/25 14:49:12;;;;;;;;;;;;;;;6.02;100.00;100215.66;6308196;22;19910;-85
2023/05/25 14:51:37;;;;;;;;;;;;;;;5.98;100.00;100213.06;6308027;22;19934;-85
2023/05/25 14:54:05;;;;;;;;;;;;;;;6.17;100.00;100207.47;6308065;22;19911;-85
2023/05/25 14:56:30;;;;;;;;;;;;;;;6.05;100.00;100212.94;6308076;22;19907;-86
2023/05/25 14:58:55;;;;;;;;;;;;;;;5.98;100.00;100206.91;6306207;22;19923;-87
2023/05/25 15:01:20;;;;;;;;;;;;;;;5.97;100.00;100208.69;6307724;22;19942;-85
2023/05/25 15:03:46;;;;;;;;;;;;;;;5.92;100.00;100204.34;6307907;22;19915;-85
2023/05/25 15:06:11;;;;;;;;;;;;;;;5.87;100.00;100206.19;6307952;22;20372;-84
2023/05/25 15:08:36;;;;;;;;;;;;;;;5.97;100.00;100207.84;6280740;22;20285;-84
2023/05/25 15:11:01;;;;;;;;;;;;;;;5.90;100.00;100208.78;6307717;22;19915;-83
2023/05/25 15:13:27;;;;;;;;;;;;;;;5.96;100.00;100209.56;6306617;22;19915;-83
2023/05/25 15:15:54;;;;;;;;;;;;;;;5.85;100.00;100218.53;6307686;22;19914;-84
2023/05/25 15:18:20;;;;;;;;;;;;;;;6.05;100.00;100215.56;6307837;22;19946;-83
2023/05/25 15:20:45;;;;;;;;;;;;;;;5.91;100.00;100208.75;6307793;22;19926;-84
2023/05/25 15:23:10;;;;;;;;;;;;;;;5.86;100.00;100205.34;6307678;22;20007;-84
2023/05/25 15:25:36;;;;;;;;;;;;;;;5.83;100.00;100205.41;6307752;22;19911;-85
2023/05/25 15:28:01;;;;;;;;;;;;;;;5.88;100.00;100200.06;6306199;22;19994;-85
2023/05/25 15:30:26;;;;;;;;;;;;;;;6.02;100.00;100210.38;6308025;22;20329;-85
2023/05/25 15:32:52;;;;;;;;;;;;;;;6.00;100.00;100203.38;6307945;22;20333;-85
2023/05/25 15:35:17;;;;;;;;;;;;;;;6.06;100.00;100206.78;6307745;22;19938;-87
2023/05/25 15:37:42;;;;;;;;;;;;;;;5.94;100.00;100202.59;6307268;22;20334;-83
2023/05/25 15:40:08;;;;;;;;;;;;;;;5.98;100.00;100205.19;6307553;22;20035;-84
2023/05/25 15:42:33;;;;;;;;;;;;;;;5.93;100.00;100209.59;6306044;22;19986;-85
2023/05/25 15:44:59;;;;;;;;;;;;;;;5.81;100.00;100197.53;6280039;22;19922;-87
2023/05/25 15:47:24;;;;;;;;;;;;;;;5.81;100.00;100197.53;6307585;22;19918;-84
2023/05/25 15:49:52;;;;;;;;;;;;;;;5.80;100.00;100202.81;6307582;22;20273;-85
2023/05/25 15:52:17;;;;;;;;;;;;;;;5.81;100.00;100196.66;6307637;22;19911;-84
2023/05/25 15:54:43;;;;;;;;;;;;;;;5.90;100.00;100201.75;6307499;22;19918;-83
2023/05/25 15:57:08;;;;;;;;;;;;;;;5.91;100.00;100200.00;6305912;22;19915;-84
2023/05/25 15:59:33;;;;;;;;;;;;;;;5.86;100.00;100200.09;6307535;22;20261;-84
2023/05/25 16:01:58;;;;;;;;;;;;;;;5.85;100.00;100194.84;6280294;22;19914;-84
2023/05/25 16:04:24;;;;;;;;;;;;;;;5.86;100.00;100200.09;6307417;22;19907;-84
2023/05/25 16:06:49;;;;;;;;;;;;;;;5.79;100.00;100204.59;6307430;22;19921;-83
2023/05/25 16:09:15;;;;;;;;;;;;;;;5.79;100.00;100203.69;6279950;22;19915;-84
2023/05/25 16:11:57;;;;;;;;;;;;;;;5.80;100.00;100197.56;6307349;22;20323;-89
2023/05/25 16:14:22;;;;;;;;;;;;;;;5.93;100.00;100204.34;6279639;22;20052;-83
2023/05/25 16:16:48;;;;;;;;;;;;;;;5.86;100.00;100200.09;6279908;22;20334;-90
2023/05/25 16:19:13;;;;;;;;;;;;;;;5.75;100.00;100189.75;6307215;22;20227;-83
2023/05/25 16:21:38;;;;;;;;;;;;;;;5.84;100.00;100207.13;6279925;22;19957;-84
2023/05/25 16:24:04;;;;;;;;;;;;;;;5.93;100.00;100193.81;6279681;22;19942;-84
2023/05/25 16:26:29;;;;;;;;;;;;;;;6.02;100.00;100197.22;6307229;22;19911;-83
2023/05/25 16:28:57;;;;;;;;;;;;;;;5.84;100.00;100196.63;6305503;22;19914;-88
2023/05/25 16:31:22;;;;;;;;;;;;;;;5.95;100.00;100196.41;6279614;22;19918;-84
2023/05/25 16:33:50;;;;;;;;;;;;;;;5.91;100.00;100192.13;6307122;22;19988;-85
2023/05/25 16:36:15;;;;;;;;;;;;;;;5.79;100.00;100195.81;6307064;22;19907;-86
2023/05/25 16:38:41;;;;;;;;;;;;;;;5.90;100.00;100191.22;6279736;22;19911;-84
2023/05/25 16:41:06;;;;;;;;;;;;;;;5.81;100.00;100186.16;6306872;22;19907;-83
2023/05/25 16:43:31;;;;;;;;;;;;;;;5.78;100.00;100189.69;6305301;22;19915;-85
2023/05/25 16:45:56;;;;;;;;;;;;;;;5.98;100.00;100186.75;6279584;22;20324;-85
2023/05/25 16:48:22;;;;;;;;;;;;;;;5.92;100.00;100191.19;6279045;22;19911;-84
2023/05/25 16:50:47;;;;;;;;;;;;;;;5.89;100.00;100186.88;6306779;22;19910;-84
2023/05/25 16:53:15;;;;;;;;;;;;;;;5.83;100.00;100189.63;6279738;22;19969;-86
2023/05/25 16:55:42;;;;;;;;;;;;;;;5.90;100.00;100191.22;6307465;22;19911;-88
2023/05/25 16:58:08;;;;;;;;;;;;;;;5.81;100.00;100184.38;6304846;22;19985;-84
2023/05/25 17:00:33;;;;;;;;;;;;;;;5.74;100.00;100180.09;6306923;22;20361;-84
2023/05/25 17:02:58;;;;;;;;;;;;;;;5.82;100.00;100180.88;6279423;22;19942;-83
2023/05/25 17:05:23;;;;;;;;;;;;;;;5.81;100.00;100186.16;6279556;22;19914;-84
2023/05/25 17:07:48;;;;;;;;;;;;;;;5.79;100.00;100182.66;6306772;22;19944;-84
2023/05/25 17:10:17;;;;;;;;;;;;;;;5.78;100.00;100186.19;6306816;22;19915;-85
2023/05/25 17:12:45;;;;;;;;;;;;;;;5.81;100.00;100180.91;6305055;22;20346;-85
2023/05/25 17:15:12;;;;;;;;;;;;;;;5.72;100.00;100181.03;6306521;22;19986;-84
2023/05/25 17:17:37;;;;;;;;;;;;;;;5.82;100.00;100188.75;6279471;22;20358;-84
2023/05/25 17:20:03;;;;;;;;;;;;;;;5.74;100.00;100184.50;6306803;22;19953;-85
2023/05/25 17:22:28;;;;;;;;;;;;;;;5.79;100.00;100178.28;6306714;22;19998;-84
2023/05/25 17:24:59;;;;;;;;;;;;;;;8.42;100.00;100170.69;6306791;22;20208;-85
2023/05/25 17:27:24;;;;;;;;;;;;;;;6.47;100.00;100182.31;6304863;22;19911;-87
2023/05/25 17:29:49;;;;;;;;;;;;;;;6.11;100.00;100190.03;6279231;22;19976;-86
2023/05/25 17:32:15;;;;;;;;;;;;;;;6.02;100.00;100190.19;6306604;22;19945;-87
2023/05/25 17:34:40;;;;;;;;;;;;;;;5.95;100.00;100188.53;6306707;22;19911;-87
2023/05/25 17:37:05;;;;;;;;;;;;;;;5.85;100.00;100197.47;6306712;22;20330;-88
2023/05/25 17:39:30;;;;;;;;;;;;;;;5.93;100.00;100196.44;6306794;22;20250;-88
2023/05/25 17:41:56;;;;;;;;;;;;;;;5.78;100.00;100204.59;6306822;22;20029;-89
2023/05/25 17:44:21;;;;;;;;;;;;;;;5.88;100.00;100203.53;6279160;22;20341;-84
2023/05/25 17:46:47;;;;;;;;;;;;;;;5.84;100.00;100196.63;6307589;22;19915;-85
2023/05/25 17:49:13;;;;;;;;;;;;;;;5.81;100.00;100202.78;6306504;22;20277;-86
2023/05/25 17:51:39;;;;;;;;;;;;;;;5.85;100.00;100203.59;6279183;22;20392;-85
2023/05/25 17:54:04;;;;;;;;;;;;;;;5.79;100.00;100208.94;6306432;22;19911;-86
2023/05/25 17:56:29;;;;;;;;;;;;;;;5.70;100.00;100209.13;6306368;22;20235;-86
2023/05/25 17:58:55;;;;;;;;;;;;;;;5.70;100.00;100209.13;6277648;22;20277;-88
2023/05/25 18:01:20;;;;;;;;;;;;;;;5.83;100.00;100203.63;6281165;22;19960;-88
2023/05/25 18:03:45;;;;;;;;;;;;;;;5.80;100.00;100205.44;6308646;22;20239;-88
2023/05/25 18:06:11;;;;;;;;;;;;;;;5.73;100.00;100206.47;6281446;22;19911;-88
2023/05/25 18:08:37;;;;;;;;;;;;;;;5.71;100.00;100211.75;6308929;22;19918;-89
2023/05/25 18:11:02;;;;;;;;;;;;;;;5.77;100.00;100216.00;6281330;22;19911;-93
2023/05/25 18:13:32;;;;;;;;;;;;;;;5.79;100.00;100207.22;6279432;22;19921;-84
2023/05/25 18:16:04;;;;;;;;;;;;;;;5.78;100.00;100215.97;6281632;22;19951;-88
2023/05/25 18:18:29;;;;;;;;;;;;;;;5.76;100.00;100214.25;6281605;22;19998;-91
2023/05/25 18:20:54;;;;;;;;;;;;;;;5.66;100.00;100210.91;6308760;22;19938;-89
2023/05/25 18:23:21;;;;;;;;;;;;;;;5.71;100.00;100210.84;6308969;22;19925;-90
2023/05/25 18:25:46;;;;;;;;;;;;;;;5.64;100.00;100210.94;6308251;22;19915;-88
2023/05/25 18:28:13;;;;;;;;;;;;;;;5.70;100.00;100217.03;6306855;22;19934;-86
2023/05/25 18:30:39;;;;;;;;;;;;;;;5.68;100.00;100216.16;6280960;22;20238;-84
2023/05/25 18:33:04;;;;;;;;;;;;;;;5.58;100.00;100215.44;6308284;22;19946;-87
2023/05/25 18:35:29;;;;;;;;;;;;;;;5.69;100.00;100225.78;6308454;22;19911;-84
2023/05/25 18:37:55;;;;;;;;;;;;;;;5.73;100.00;100219.59;6308227;22;19997;-84
2023/05/25 18:40:20;;;;;;;;;;;;;;;5.66;100.00;100218.81;6308635;22;19919;-87
2023/05/25 18:42:45;;;;;;;;;;;;;;;5.70;100.00;100223.13;6306546;22;19957;-87
2023/05/25 18:45:11;;;;;;;;;;;;;;;5.69;100.00;100226.66;6308315;22;19922;-85
2023/05/25 18:47:41;;;;;;;;;;;;;;;5.69;100.00;100223.16;6308202;22;19911;-85
2023/05/25 18:50:07;;;;;;;;;;;;;;;5.60;100.00;100225.03;6308057;22;19910;-86
2023/05/25 18:52:32;;;;;;;;;;;;;;;5.62;100.00;100235.53;6308108;22;20246;-85
2023/05/25 18:54:58;;;;;;;;;;;;;;;5.69;100.00;100229.28;6280447;22;19942;-84
2023/05/25 18:57:28;;;;;;;;;;;;;;;5.71;100.00;100232.78;6306962;22;20223;-86
2023/05/25 18:59:54;;;;;;;;;;;;;;;5.68;100.00;100226.66;6307826;22;19957;-87
2023/05/25 19:02:20;;;;;;;;;;;;;;;5.75;100.00;100233.59;6280384;22;19914;-84
2023/05/25 19:04:45;;;;;;;;;;;;;;;5.66;100.00;100231.09;6308017;22;19915;-86
2023/05/25 19:07:10;;;;;;;;;;;;;;;5.68;100.00;100230.19;6307968;22;19911;-86
2023/05/25 19:09:35;;;;;;;;;;;;;;;5.64;100.00;100233.75;6280859;22;20309;-86
2023/05/25 19:12:03;;;;;;;;;;;;;;;5.69;100.00;100242.41;6278319;22;19986;-86
2023/05/25 19:14:28;;;;;;;;;;;;;;;5.66;100.00;100237.22;6307852;22;20238;-84
2023/05/25 19:16:54;;;;;;;;;;;;;;;5.67;100.00;100246.84;6280466;22;19922;-86